« Back
NWS Peachtree City, Ga » Text Product » ATL Terminal Aerodrome Forecast


Printer-friendly Version
Current Version              Previous Versions:   1  2  3  4  5  6  7  8  9  

Terminal Aerodrome Forecast

863
FTUS42 KFFC 280943 AAB
TAFATL
TAF AMD
KATL 280943Z 2810/2912 33004KT P6SM SCT250
     FM281600 32007KT P6SM SCT050
     FM290200 35004KT P6SM SCT120=



USA.gov is the U.S. government's official web portal to all federal, state and local government web resources and services.